地図

経路データ

SID SEASON NUMBER BASIN SUBBASIN NAME ISO_TIME NATURE LAT LON WMO_WIND WMO_PRES WMO_AGENCY TRACK_TYPE DIST2LAND LANDFALL IFLAG USA_AGENCY USA_ATCF_ID USA_LAT USA_LON USA_RECORD USA_STATUS USA_WIND USA_PRES USA_SSHS USA_R34_NE USA_R34_SE USA_R34_SW USA_R34_NW USA_R50_NE USA_R50_SE USA_R50_SW USA_R50_NW USA_R64_NE USA_R64_SE USA_R64_SW USA_R64_NW USA_POCI USA_ROCI USA_RMW USA_EYE TOKYO_LAT TOKYO_LON TOKYO_GRADE TOKYO_WIND TOKYO_PRES TOKYO_R50_DIR TOKYO_R50_LONG TOKYO_R50_SHORT TOKYO_R30_DIR TOKYO_R30_LONG TOKYO_R30_SHORT TOKYO_LAND CMA_LAT CMA_LON CMA_CAT CMA_WIND CMA_PRES HKO_LAT HKO_LON HKO_CAT HKO_WIND HKO_PRES NEWDELHI_LAT NEWDELHI_LON NEWDELHI_GRADE NEWDELHI_WIND NEWDELHI_PRES NEWDELHI_CI NEWDELHI_DP NEWDELHI_POCI REUNION_LAT REUNION_LON REUNION_TYPE REUNION_WIND REUNION_PRES REUNION_TNUM REUNION_CI REUNION_RMW REUNION_R34_NE REUNION_R34_SE REUNION_R34_SW REUNION_R34_NW REUNION_R50_NE REUNION_R50_SE REUNION_R50_SW REUNION_R50_NW REUNION_R64_NE REUNION_R64_SE REUNION_R64_SW REUNION_R64_NW BOM_LAT BOM_LON BOM_TYPE BOM_WIND BOM_PRES BOM_TNUM BOM_CI BOM_RMW BOM_R34_NE BOM_R34_SE BOM_R34_SW BOM_R34_NW BOM_R50_NE BOM_R50_SE BOM_R50_SW BOM_R50_NW BOM_R64_NE BOM_R64_SE BOM_R64_SW BOM_R64_NW BOM_ROCI BOM_POCI BOM_EYE BOM_POS_METHOD BOM_PRES_METHOD NADI_LAT NADI_LON NADI_CAT NADI_WIND NADI_PRES WELLINGTON_LAT WELLINGTON_LON WELLINGTON_WIND WELLINGTON_PRES DS824_LAT DS824_LON DS824_STAGE DS824_WIND DS824_PRES TD9636_LAT TD9636_LON TD9636_STAGE TD9636_WIND TD9636_PRES TD9635_LAT TD9635_LON TD9635_WIND TD9635_PRES TD9635_ROCI NEUMANN_LAT NEUMANN_LON NEUMANN_CLASS NEUMANN_WIND NEUMANN_PRES MLC_LAT MLC_LON MLC_CLASS MLC_WIND MLC_PRES USA_GUST BOM_GUST BOM_GUST_PER REUNION_GUST REUNION_GUST_PER USA_SEAHGT USA_SEARAD_NE USA_SEARAD_SE USA_SEARAD_SW USA_SEARAD_NW STORM_SPEED STORM_DIR
1855270N33309 1855 14 NA NA NOT_NAMED 1855-09-26 12:00:00 TS 33.4000 -51.0000 main 1480 1480 _____________O -1 33.4000 -51.0000 TD 30 3 68
1855270N33309 1855 14 NA NA NOT_NAMED 1855-09-26 15:00:00 TS 33.4500 -50.8600 main 1470 1470 _____________P -1 33.4500 -50.8600 TD 30 3 68
1855270N33309 1855 14 NA NA NOT_NAMED 1855-09-26 18:00:00 TS 33.5000 -50.7000 main 1473 1473 _____________O -1 33.5000 -50.7000 TD 30 3 71
1855270N33309 1855 14 NA NA NOT_NAMED 1855-09-26 21:00:00 TS 33.5500 -50.5075 main 1464 1464 _____________P -1 33.5500 -50.5075 TD 30 3 73
1855270N33309 1855 14 NA NA NOT_NAMED 1855-09-27 00:00:00 TS 33.6000 -50.3000 main 1467 1459 _____________O -1 33.6000 -50.3000 TD 30 4 72
1855270N33309 1855 14 NA NA NOT_NAMED 1855-09-27 03:00:00 TS 33.6575 -50.1000 main 1459 1459 _____________P -1 33.6575 -50.1000 TD 32 3 73
1855270N33309 1855 14 NA NA NOT_NAMED 1855-09-27 06:00:00 TS 33.7000 -49.9000 main 1462 1462 _____________O -1 33.7000 -49.9000 TS 35 3 84
1855270N33309 1855 14 NA NA NOT_NAMED 1855-09-27 09:00:00 TS 33.6925 -49.6849 main 1465 1465 _____________P -1 33.6925 -49.6849 TS 35 3 90
1855270N33309 1855 14 NA NA NOT_NAMED 1855-09-27 12:00:00 TS 33.7000 -49.5000 main 1468 1459 _____________O -1 33.7000 -49.5000 TS 35 3 70
1855270N33309 1855 14 NA NA NOT_NAMED 1855-09-27 15:00:00 TS 33.7850 -49.3775 main 1459 1450 _____________P -1 33.7850 -49.3775 TS 35 3 40
1855270N33309 1855 14 NA NA NOT_NAMED 1855-09-27 18:00:00 TS 33.9000 -49.3000 main 1450 1439 _____________O -1 33.9000 -49.3000 TS 35 2 28
1855270N33309 1855 14 NA NA NOT_NAMED 1855-09-27 21:00:00 TS 34.0000 -49.2425 main 1441 1430 _____________P -1 34.0000 -49.2425 TS 35 2 23
1855270N33309 1855 14 NA NA NOT_NAMED 1855-09-28 00:00:00 TS 34.1000 -49.2000 main 1430 1420 _____________O -1 34.1000 -49.2000 TS 35 2 23
1855270N33309 1855 14 NA NA NOT_NAMED 1855-09-28 03:00:00 TS 34.2000 -49.1500 main 1422 1411 _____________P -1 34.2000 -49.1500 TS 40 2 23
1855270N33309 1855 14 NA NA NOT_NAMED 1855-09-28 06:00:00 TS 34.3000 -49.1000 main 1411 1400 _____________O -1 34.3000 -49.1000 TS 45 2 23
1855270N33309 1855 14 NA NA NOT_NAMED 1855-09-28 09:00:00 TS 34.4000 -49.0575 main 1400 1391 _____________P -1 34.4000 -49.0575 TS 45 2 23
1855270N33309 1855 14 NA NA NOT_NAMED 1855-09-28 12:00:00 TS 34.5000 -49.0000 main 1391 1380 _____________O -1 34.5000 -49.0000 TS 45 2 33
1855270N33309 1855 14 NA NA NOT_NAMED 1855-09-28 15:00:00 TS 34.6075 -48.9000 main 1382 1372 _____________P -1 34.6075 -48.9000 TS 45 3 40
1855270N33309 1855 14 NA NA NOT_NAMED 1855-09-28 18:00:00 TS 34.7000 -48.8000 main 1374 1365 _____________O -1 34.7000 -48.8000 TS 45 2 41
1855270N33309 1855 14 NA NA NOT_NAMED 1855-09-28 21:00:00 TS 34.7575 -48.7425 main 1365 1365 _____________P -1 34.7575 -48.7425 TS 45 1 37
1855270N33309 1855 14 NA NA NOT_NAMED 1855-09-29 00:00:00 TS 34.8000 -48.7000 main 1365 1365 _____________O -1 34.8000 -48.7000 TS 45 1 39
1855270N33309 1855 14 NA NA NOT_NAMED 1855-09-29 03:00:00 TS 34.8500 -48.6500 main 1357 1357 _____________P -1 34.8500 -48.6500 TS 47 1 37
1855270N33309 1855 14 NA NA NOT_NAMED 1855-09-29 06:00:00 TS 34.9000 -48.6000 main 1357 1357 _____________O -1 34.9000 -48.6000 TS 50 1 39
1855270N33309 1855 14 NA NA NOT_NAMED 1855-09-29 09:00:00 TS 34.9425 -48.5575 main 1357 1348 _____________P -1 34.9425 -48.5575 TS 50 1 37
1855270N33309 1855 14 NA NA NOT_NAMED 1855-09-29 12:00:00 TS 35.0000 -48.5000 main 1348 1338 _____________O -1 35.0000 -48.5000 TS 50 2 39
1855270N33309 1855 14 NA NA NOT_NAMED 1855-09-29 15:00:00 TS 35.1000 -48.4076 main 1340 1329 _____________P -1 35.1000 -48.4076 TS 50 3 40
1855270N33309 1855 14 NA NA NOT_NAMED 1855-09-29 18:00:00 TS 35.2000 -48.3000 main 1332 1324 _____________O -1 35.2000 -48.3000 TS 50 2 47
1855270N33309 1855 14 NA NA NOT_NAMED 1855-09-29 21:00:00 TS 35.2575 -48.2000 main 1324 1324 _____________P -1 35.2575 -48.2000 TS 50 2 58
1855270N33309 1855 14 NA NA NOT_NAMED 1855-09-30 00:00:00 TS 35.3000 -48.1000 main 1327 1327 _____________O -1 35.3000 -48.1000 TS 50 2 60
1855270N33309 1855 14 NA NA NOT_NAMED 1855-09-30 03:00:00 TS 35.3500 -48.0000 main 1329 1319 _____________P -1 35.3500 -48.0000 TS 52 2 58
1855270N33309 1855 14 NA NA NOT_NAMED 1855-09-30 06:00:00 TS 35.4000 -47.9000 main 1321 1321 _____________O -1 35.4000 -47.9000 TS 55 2 57
1855270N33309 1855 14 NA NA NOT_NAMED 1855-09-30 09:00:00 TS 35.4500 -47.8075 main 1324 1314 _____________P -1 35.4500 -47.8075 TS 55 2 58
1855270N33309 1855 14 NA NA NOT_NAMED 1855-09-30 12:00:00 TS 35.5000 -47.7000 main 1316 1309 _____________O -1 35.5000 -47.7000 TS 55 2 62
1855270N33309 1855 14 NA NA NOT_NAMED 1855-09-30 15:00:00 TS 35.5575 -47.5575 main 1309 1309 _____________P -1 35.5575 -47.5575 TS 50 3 68
1855270N33309 1855 14 NA NA NOT_NAMED 1855-09-30 18:00:00 TS 35.6000 -47.4000 main 1315 1315 _____________O -1 35.6000 -47.4000 TS 45 3 79
1855270N33309 1855 14 NA NA NOT_NAMED 1855-09-30 21:00:00 TS 35.6075 -47.2500 main 1321 1321 _____________P -1 35.6075 -47.2500 TS 45 2 90
1855270N33309 1855 14 NA NA NOT_NAMED 1855-10-01 00:00:00 TS 35.6000 -47.1000 main 1324 1324 _____________O -1 35.6000 -47.1000 TS 45 2 92
1855270N33309 1855 14 NA NA NOT_NAMED 1855-10-01 03:00:00 TS 35.6000 -46.9500 main 1331 1327 _____________P -1 35.6000 -46.9500 TS 45 2 90
1855270N33309 1855 14 NA NA NOT_NAMED 1855-10-01 06:00:00 TS 35.6000 -46.8000 main 1334 1334 _____________O -1 35.6000 -46.8000 TS 45 2 92
1855270N33309 1855 14 NA NA NOT_NAMED 1855-10-01 09:00:00 TS 35.5925 -46.6425 main 1341 1341 _____________P -1 35.5925 -46.6425 TS 42 2 90
1855270N33309 1855 14 NA NA NOT_NAMED 1855-10-01 12:00:00 TS 35.6000 -46.5000 main 1344 1344 _____________O -1 35.6000 -46.5000 TS 40 2 75
1855270N33309 1855 14 NA NA NOT_NAMED 1855-10-01 15:00:00 TS 35.6500 -46.3850 main 1347 1337 _____________P -1 35.6500 -46.3850 TS 40 2 58
1855270N33309 1855 14 NA NA NOT_NAMED 1855-10-01 18:00:00 TS 35.7000 -46.3000 main 1341 1341 _____________O -1 35.7000 -46.3000 TS 40 1 63
1855270N33309 1855 14 NA NA NOT_NAMED 1855-10-01 21:00:00 TS 35.7075 -46.2500 main 1344 1344 _____________P -1 35.7075 -46.2500 TS 40 1 90
1855270N33309 1855 14 NA NA NOT_NAMED 1855-10-02 00:00:00 TS 35.7000 -46.2000 main 1344 1344 _____________O -1 35.7000 -46.2000 TS 40 1 94
1855270N33309 1855 14 NA NA NOT_NAMED 1855-10-02 03:00:00 TS 35.7000 -46.1000 main 1348 1348 _____________P -1 35.7000 -46.1000 TS 40 2 90
1855270N33309 1855 14 NA NA NOT_NAMED 1855-10-02 06:00:00 TS 35.7000 -46.0000 main 1351 1351 _____________O -1 35.7000 -46.0000 TS 40 1 93
1855270N33309 1855 14 NA NA NOT_NAMED 1855-10-02 09:00:00 TS 35.6925 -45.9425 main 1355 1355 _____________P -1 35.6925 -45.9425 TS 37 1 90
1855270N33309 1855 14 NA NA NOT_NAMED 1855-10-02 12:00:00 TS 35.7000 -45.9000 main 1355 1355 _____________O -1 35.7000 -45.9000 TS 35 1 54
1855270N33309 1855 14 NA NA NOT_NAMED 1855-10-02 15:00:00 TS 35.7500 -45.8500 main 1345 1345 _____________P -1 35.7500 -45.8500 TS 35 1 37
1855270N33309 1855 14 NA NA NOT_NAMED 1855-10-02 18:00:00 TS 35.8000 -45.8000 main 1349 1349 _____________O -1 35.8000 -45.8000 TS 35 1 54
1855270N33309 1855 14 NA NA NOT_NAMED 1855-10-02 21:00:00 TS 35.8075 -45.7500 main 1353 1353 _____________P -1 35.8075 -45.7500 TS 35 1 90
1855270N33309 1855 14 NA NA NOT_NAMED 1855-10-03 00:00:00 TS 35.8000 -45.7000 main 1353 1353 _____________O -1 35.8000 -45.7000 TS 35 1 95
1855270N33309 1855 14 NA NA NOT_NAMED 1855-10-03 03:00:00 TS 35.8000 -45.6500 main 1356 1356 _____________P -1 35.8000 -45.6500 TS 35 1 90
1855270N33309 1855 14 NA NA NOT_NAMED 1855-10-03 06:00:00 TS 35.8000 -45.6000 main 1356 1356 _____________O -1 35.8000 -45.6000 TS 35 1 95
1855270N33309 1855 14 NA NA NOT_NAMED 1855-10-03 09:00:00 TS 35.7925 -45.5425 main 1360 1360 _____________P -1 35.7925 -45.5425 TS 35 1 90
1855270N33309 1855 14 NA NA NOT_NAMED 1855-10-03 12:00:00 TS 35.8000 -45.5000 main 1360 1360 _____________O -1 35.8000 -45.5000 TS 35 1 43
1855270N33309 1855 14 NA NA NOT_NAMED 1855-10-03 15:00:00 TS 35.8425 -45.4925 main 1360 1350 _____________P -1 35.8425 -45.4925 TS 35 1 0
1855270N33309 1855 14 NA NA NOT_NAMED 1855-10-03 18:00:00 TS 35.9000 -45.5000 main 1350 1350 _____________O -1 35.9000 -45.5000 TS 35 1 0
1855270N33309 1855 14 NA NA NOT_NAMED 1855-10-03 21:00:00 TS 35.9500 -45.5000 main 1340 1340 _____________P -1 35.9500 -45.5000 TS 35 1 0
1855270N33309 1855 14 NA NA NOT_NAMED 1855-10-04 00:00:00 TS 36.0000 -45.5000 main 1340 1340 _____________O -1 36.0000 -45.5000 TS 35 1 0
1855270N33309 1855 14 NA NA NOT_NAMED 1855-10-04 03:00:00 TS 36.0500 -45.5000 main 1330 1330 _____________P -1 36.0500 -45.5000 TS 32 1 0
1855270N33309 1855 14 NA NA NOT_NAMED 1855-10-04 06:00:00 TS 36.1000 -45.5000 main 1330 1330 _____________O -1 36.1000 -45.5000 TD 30 1 0
1855270N33309 1855 14 NA NA NOT_NAMED 1855-10-04 09:00:00 TS 36.1500 -45.5000 main 1320 1320 _____________P -1 36.1500 -45.5000 TD 30 1 0
1855270N33309 1855 14 NA NA NOT_NAMED 1855-10-04 12:00:00 TS 36.2000 -45.5000 main 1320 1320 _____________O -1 36.2000 -45.5000 TD 30 1 0
1855270N33309 1855 14 NA NA NOT_NAMED 1855-10-04 15:00:00 TS 36.2500 -45.4925 main 1310 1310 _____________P -1 36.2500 -45.4925 TD 30 1 0
1855270N33309 1855 14 NA NA NOT_NAMED 1855-10-04 18:00:00 TS 36.3000 -45.5000 main 1310 1310 _____________O -1 36.3000 -45.5000 TD 30 1 343
1855270N33309 1855 14 NA NA NOT_NAMED 1855-10-04 21:00:00 TS 36.3500 -45.5500 main 1300 1296 _____________P -1 36.3500 -45.5500 TD 30 1 323
1855270N33309 1855 14 NA NA NOT_NAMED 1855-10-05 00:00:00 TS 36.4000 -45.6000 main 1296 1296 _____________O -1 36.4000 -45.6000 TD 30 1 343
1855270N33309 1855 14 NA NA NOT_NAMED 1855-10-05 03:00:00 TS 36.4500 -45.6000 main 1286 1286 _____________P -1 36.4500 -45.6000 TD 32 1 0
1855270N33309 1855 14 NA NA NOT_NAMED 1855-10-05 06:00:00 TS 36.5000 -45.6000 main 1286 1276 _____________O -1 36.5000 -45.6000 TS 35 1 339
1855270N33309 1855 14 NA NA NOT_NAMED 1855-10-05 09:00:00 TS 36.5725 -45.6500 main 1276 1272 _____________P -1 36.5725 -45.6500 TS 35 1 323
1855270N33309 1855 14 NA NA NOT_NAMED 1855-10-05 12:00:00 TS 36.6000 -45.7000 main 1272 1272 _____________O -1 36.6000 -45.7000 TS 35 1 213
1855270N33309 1855 14 NA NA NOT_NAMED 1855-10-05 15:00:00 TS 36.5150 -45.7000 main 1282 1282 _____________P -1 36.5150 -45.7000 TS 35 2 172
1855270N33309 1855 14 NA NA NOT_NAMED 1855-10-05 18:00:00 TS 36.4000 -45.7000 main 1292 1292 _____________O -1 36.4000 -45.7000 TS 35 2 193
1855270N33309 1855 14 NA NA NOT_NAMED 1855-10-05 21:00:00 TS 36.3425 -45.7500 main 1298 1298 _____________P -1 36.3425 -45.7500 TS 35 1 217
1855270N33309 1855 14 NA NA NOT_NAMED 1855-10-06 00:00:00 TS 36.3000 -45.8000 main 1298 1298 _____________O -1 36.3000 -45.8000 TS 35 1 197
1855270N33309 1855 14 NA NA NOT_NAMED 1855-10-06 03:00:00 TS 36.2500 -45.8075 main 1298 1308 _____________P -1 36.2500 -45.8075 TS 40 1 0
1855270N33309 1855 14 NA NA NOT_NAMED 1855-10-06 06:00:00 TS 36.2000 -45.8000 main 1308 1308 _____________O -1 36.2000 -45.8000 TS 45 1 0
1855270N33309 1855 14 NA NA NOT_NAMED 1855-10-06 09:00:00 TS 36.1575 -45.7925 main 1308 1308 _____________P -1 36.1575 -45.7925 TS 45 1 0
1855270N33309 1855 14 NA NA NOT_NAMED 1855-10-06 12:00:00 TS 36.1000 -45.8000 main 1318 1318 _____________O -1 36.1000 -45.8000 TS 45 2 195
1855270N33309 1855 14 NA NA NOT_NAMED 1855-10-06 15:00:00 TS 36.0000 -45.8501 main 1325 1325 _____________P -1 36.0000 -45.8501 TS 45 2 203
1855270N33309 1855 14 NA NA NOT_NAMED 1855-10-06 18:00:00 TS 35.9000 -45.9000 main 1335 1335 _____________O -1 35.9000 -45.9000 TS 45 2 192
1855270N33309 1855 14 NA NA NOT_NAMED 1855-10-06 21:00:00 TS 35.8500 -45.9000 main 1345 1345 _____________P -1 35.8500 -45.9000 TS 45 1 0
1855270N33309 1855 14 NA NA NOT_NAMED 1855-10-07 00:00:00 TS 35.8000 -45.9000 main 1345 1345 _____________O -1 35.8000 -45.9000 TS 45 2 192
1855270N33309 1855 14 NA NA NOT_NAMED 1855-10-07 03:00:00 TS 35.7000 -45.9501 main 1351 1351 _____________P -1 35.7000 -45.9501 TS 50 2 203
1855270N33309 1855 14 NA NA NOT_NAMED 1855-10-07 06:00:00 TS 35.6000 -46.0000 main 1362 1362 _____________O -1 35.6000 -46.0000 TS 55 2 192
1855270N33309 1855 14 NA NA NOT_NAMED 1855-10-07 09:00:00 TS 35.5500 -46.0075 main 1362 1372 _____________P -1 35.5500 -46.0075 TS 55 1 0
1855270N33309 1855 14 NA NA NOT_NAMED 1855-10-07 12:00:00 TS 35.5000 -46.0000 main 1372 1372 _____________O -1 35.5000 -46.0000 TS 55 2 0
1855270N33309 1855 14 NA NA NOT_NAMED 1855-10-07 15:00:00 TS 35.4000 -46.0000 main 1382 1382 _____________P -1 35.4000 -46.0000 TS 55 2 172
1855270N33309 1855 14 NA NA NOT_NAMED 1855-10-07 18:00:00 TS 35.3000 -46.0000 main 1392 1392 _____________O -1 35.3000 -46.0000 TS 55 2 0
1855270N33309 1855 14 NA NA NOT_NAMED 1855-10-07 21:00:00 TS 35.2500 -46.0000 main 1392 1392 _____________P -1 35.2500 -46.0000 TS 55 1 0
1855270N33309 1855 14 NA NA NOT_NAMED 1855-10-08 00:00:00 TS 35.2000 -46.0000 main 1403 1403 _____________O -1 35.2000 -46.0000 TS 55 2 0
1855270N33309 1855 14 NA NA NOT_NAMED 1855-10-08 03:00:00 TS 35.1000 -46.0000 main 1413 1413 _____________P -1 35.1000 -46.0000 TS 55 2 172
1855270N33309 1855 14 NA NA NOT_NAMED 1855-10-08 06:00:00 TS 35.0000 -46.0000 main 1423 1423 _____________O -1 35.0000 -46.0000 TS 55 2 0
1855270N33309 1855 14 NA NA NOT_NAMED 1855-10-08 09:00:00 TS 34.9500 -46.0000 main 1423 1423 _____________P -1 34.9500 -46.0000 TS 55 1 0
1855270N33309 1855 14 NA NA NOT_NAMED 1855-10-08 12:00:00 TS 34.9000 -46.0000 main 1433 1433 _____________O -1 34.9000 -46.0000 TS 55 1 177
1855270N33309 1855 14 NA NA NOT_NAMED 1855-10-08 15:00:00 TS 34.8075 -46.0000 main 1444 1444 _____________P -1 34.8075 -46.0000 TS 55 2 172
1855270N33309 1855 14 NA NA NOT_NAMED 1855-10-08 18:00:00 TS 34.7000 -46.0000 main 1454 1454 _____________O -1 34.7000 -46.0000 TS 55 2 172
1855270N33309 1855 14 NA NA NOT_NAMED 1855-10-08 21:00:00 TS 34.6000 -46.0000 main 1464 1464 _____________P -1 34.6000 -46.0000 TS 55 2 172
1855270N33309 1855 14 NA NA NOT_NAMED 1855-10-09 00:00:00 TS 34.5000 -46.0000 main 1475 1475 _____________O -1 34.5000 -46.0000 TS 55 2 172
1855270N33309 1855 14 NA NA NOT_NAMED 1855-10-09 03:00:00 TS 34.3925 -46.0000 main 1485 1485 _____________P -1 34.3925 -46.0000 TS 55 2 172
1855270N33309 1855 14 NA NA NOT_NAMED 1855-10-09 06:00:00 TS 34.3000 -46.0000 main 1495 1495 _____________O -1 34.3000 -46.0000 TS 55 1 177
1855270N33309 1855 14 NA NA NOT_NAMED 1855-10-09 09:00:00 TS 34.2500 -46.0000 main 1495 1495 _____________P -1 34.2500 -46.0000 TS 55 1 0
1855270N33309 1855 14 NA NA NOT_NAMED 1855-10-09 12:00:00 TS 34.2000 -46.0000 main 1506 1506 _____________O -1 34.2000 -46.0000 TS 55 2 0
1855270N33309 1855 14 NA NA NOT_NAMED 1855-10-09 15:00:00 TS 34.1000 -46.0000 main 1516 1516 _____________P -1 34.1000 -46.0000 TS 55 2 172
1855270N33309 1855 14 NA NA NOT_NAMED 1855-10-09 18:00:00 TS 34.0000 -46.0000 main 1526 1526 _____________O -1 34.0000 -46.0000 TS 55 2 0
1855270N33309 1855 14 NA NA NOT_NAMED 1855-10-09 21:00:00 TS 33.9500 -46.0000 main 1526 1526 _____________P -1 33.9500 -46.0000 TS 55 1 0
1855270N33309 1855 14 NA NA NOT_NAMED 1855-10-10 00:00:00 TS 33.9000 -46.0000 main 1537 1537 _____________O -1 33.9000 -46.0000 TS 55 2 0
1855270N33309 1855 14 NA NA NOT_NAMED 1855-10-10 03:00:00 TS 33.8000 -46.0000 main 1547 1547 _____________P -1 33.8000 -46.0000 TS 55 2 172
1855270N33309 1855 14 NA NA NOT_NAMED 1855-10-10 06:00:00 TS 33.7000 -46.0000 main 1558 1558 _____________O -1 33.7000 -46.0000 TS 55 1 190
1855270N33309 1855 14 NA NA NOT_NAMED 1855-10-10 09:00:00 TS 33.6650 -46.0151 main 1558 1558 _____________P -1 33.6650 -46.0151 TS 55 1 0
1855270N33309 1855 14 NA NA NOT_NAMED 1855-10-10 12:00:00 TS 33.6000 -46.0000 main 1568 1568 _____________O -1 33.6000 -46.0000 TS 55 3 161
1855270N33309 1855 14 NA NA NOT_NAMED 1855-10-10 15:00:00 TS 33.4225 -45.9149 main 1592 1592 _____________P -1 33.4225 -45.9149 TS 55 4 157
1855270N33309 1855 14 NA NA NOT_NAMED 1855-10-10 18:00:00 TS 33.2000 -45.8000 main 1616 1616 _____________O -1 33.2000 -45.8000 TS 55 5 157
1855270N33309 1855 14 NA NA NOT_NAMED 1855-10-10 21:00:00 TS 33.0000 -45.7000 main 1641 1641 _____________P -1 33.0000 -45.7000 TS 55 4 157
1855270N33309 1855 14 NA NA NOT_NAMED 1855-10-11 00:00:00 TS 32.8000 -45.6000 main 1665 1665 _____________O -1 32.8000 -45.6000 TS 55 4 157
1855270N33309 1855 14 NA NA NOT_NAMED 1855-10-11 03:00:00 TS 32.6075 -45.5001 main 1689 1689 _____________P -1 32.6075 -45.5001 TS 55 4 157
1855270N33309 1855 14 NA NA NOT_NAMED 1855-10-11 06:00:00 TS 32.4000 -45.4000 main 1713 1713 _____________O -1 32.4000 -45.4000 TS 55 5 158
1855270N33309 1855 14 NA NA NOT_NAMED 1855-10-11 09:00:00 TS 32.1500 -45.2849 main 1737 1737 _____________P -1 32.1500 -45.2849 TS 55 5 161
1855270N33309 1855 14 NA NA NOT_NAMED 1855-10-11 12:00:00 TS 31.9000 -45.2000 main 1772 1772 _____________O -1 31.9000 -45.2000 TS 55 5 169
1855270N33309 1855 14 NA NA NOT_NAMED 1855-10-11 15:00:00 TS 31.6925 -45.1851 main 1793 1793 _____________P -1 31.6925 -45.1851 TS 55 4 0
1855270N33309 1855 14 NA NA NOT_NAMED 1855-10-11 18:00:00 TS 31.5000 -45.2000 main 1814 1814 _____________O -1 31.5000 -45.2000 TS 55 4 0
1855270N33309 1855 14 NA NA NOT_NAMED 1855-10-11 21:00:00 TS 31.3000 -45.2075 main 1835 1835 _____________P -1 31.3000 -45.2075 TS 55 4 0
1855270N33309 1855 14 NA NA NOT_NAMED 1855-10-12 00:00:00 TS 31.1000 -45.2000 main 1856 1856 _____________O -1 31.1000 -45.2000 TS 55 4 172
1855270N33309 1855 14 NA NA NOT_NAMED 1855-10-12 03:00:00 TS 30.9000 -45.1499 main 1880 1880 _____________P -1 30.9000 -45.1499 TS 55 4 168
1855270N33309 1855 14 NA NA NOT_NAMED 1855-10-12 06:00:00 TS 30.7000 -45.1000 main 1901 1901 _____________O -1 30.7000 -45.1000 TS 55 4 175
1855270N33309 1855 14 NA NA NOT_NAMED 1855-10-12 09:00:00 TS 30.4925 -45.1076 main 1922 1922 _____________P -1 30.4925 -45.1076 TS 55 4 0
1855270N33309 1855 14 NA NA NOT_NAMED 1855-10-12 12:00:00 TS 30.3000 -45.1000 main 1943 1943 _____________O -1 30.3000 -45.1000 TS 55 4 166
1855270N33309 1855 14 NA NA NOT_NAMED 1855-10-12 15:00:00 TS 30.1350 -45.0074 main 1967 1967 _____________P -1 30.1350 -45.0074 TS 55 3 150
1855270N33309 1855 14 NA NA NOT_NAMED 1855-10-12 18:00:00 TS 30.0000 -44.9000 main 1981 1981 _____________O -1 30.0000 -44.9000 TS 55 3 149
1855270N33309 1855 14 NA NA NOT_NAMED 1855-10-12 21:00:00 TS 29.9000 -44.8426 main 1995 1995 _____________P -1 29.9000 -44.8426 TS 55 2 155
1855270N33309 1855 14 NA NA NOT_NAMED 1855-10-13 00:00:00 TS 29.8000 -44.8000 main 2005 2005 _____________O -1 29.8000 -44.8000 TS 55 3 162
1855270N33309 1855 14 NA NA NOT_NAMED 1855-10-13 03:00:00 TS 29.6500 -44.7500 main 2019 2030 _____________P -1 29.6500 -44.7500 TS 55 3 164
1855270N33309 1855 14 NA NA NOT_NAMED 1855-10-13 06:00:00 TS 29.5000 -44.7000 main 2040 2040 _____________O -1 29.5000 -44.7000 TS 55 3 164
1855270N33309 1855 14 NA NA NOT_NAMED 1855-10-13 09:00:00 TS 29.3625 -44.6575 main 2051 2051 _____________P -1 29.3625 -44.6575 TS 55 2 155
1855270N33309 1855 14 NA NA NOT_NAMED 1855-10-13 12:00:00 TS 29.3000 -44.6000 main 2064 2057 _____________O -1 29.3000 -44.6000 TS 55 1 83
1855270N33309 1855 14 NA NA NOT_NAMED 1855-10-13 15:00:00 TS 29.3775 -44.5076 main 2057 2050 _____________P -1 29.3775 -44.5076 TS 55 3 41
1855270N33309 1855 14 NA NA NOT_NAMED 1855-10-13 18:00:00 TS 29.5000 -44.4000 main 2050 2042 _____________O -1 29.5000 -44.4000 TS 55 3 46
1855270N33309 1855 14 NA NA NOT_NAMED 1855-10-13 21:00:00 TS 29.5575 -44.2925 main 2042 2042 _____________P -1 29.5575 -44.2925 TS 55 2 60
1855270N33309 1855 14 NA NA NOT_NAMED 1855-10-14 00:00:00 TS 29.6000 -44.2000 main 2046 2046 _____________O -1 29.6000 -44.2000 TS 55 2 54
1855270N33309 1855 14 NA NA NOT_NAMED 1855-10-14 03:00:00 TS 29.6500 -44.1425 main 2049 2038 _____________P -1 29.6500 -44.1425 TS 57 1 40
1855270N33309 1855 14 NA NA NOT_NAMED 1855-10-14 06:00:00 TS 29.7000 -44.1000 main 2038 2038 _____________O -1 29.7000 -44.1000 TS 60 1 41
1855270N33309 1855 14 NA NA NOT_NAMED 1855-10-14 09:00:00 TS 29.7350 -44.0574 main 2038 2031 _____________P -1 29.7350 -44.0574 TS 60 1 40
1855270N33309 1855 14 NA NA NOT_NAMED 1855-10-14 12:00:00 TS 29.8000 -44.0000 main 2031 2021 _____________O -1 29.8000 -44.0000 TS 60 2 34
1855270N33309 1855 14 NA NA NOT_NAMED 1855-10-14 15:00:00 TS 29.9425 -43.9001 main 2024 2007 _____________P -1 29.9425 -43.9001 TS 65 3 30
1855270N33309 1855 14 NA NA NOT_NAMED 1855-10-14 18:00:00 TS 30.1000 -43.8000 main 2007 1996 _____________O -1 30.1000 -43.8000 HU 70 3 28
1855270N33309 1855 14 NA NA NOT_NAMED 1855-10-14 21:00:00 TS 30.2000 -43.7424 main 2000 1989 _____________P -1 30.2000 -43.7424 HU 72 2 25
1855270N33309 1855 14 NA NA NOT_NAMED 1855-10-15 00:00:00 TS 30.3000 -43.7000 main 1989 1979 _____________O -1 30.3000 -43.7000 HU 75 3 18
1855270N33309 1855 14 NA NA NOT_NAMED 1855-10-15 03:00:00 TS 30.4500 -43.6500 main 1969 1962 _____________P -1 30.4500 -43.6500 HU 77 3 16
1855270N33309 1855 14 NA NA NOT_NAMED 1855-10-15 06:00:00 TS 30.6000 -43.6000 main 1962 1952 _____________O -1 30.6000 -43.6000 HU 80 3 19
1855270N33309 1855 14 NA NA NOT_NAMED 1855-10-15 09:00:00 TS 30.6925 -43.5574 main 1952 1945 _____________P -1 30.6925 -43.5574 HU 80 2 25
1855270N33309 1855 14 NA NA NOT_NAMED 1855-10-15 12:00:00 TS 30.8000 -43.5000 main 1945 1928 _____________O -1 30.8000 -43.5000 HU 80 3 25
1855270N33309 1855 14 NA NA NOT_NAMED 1855-10-15 15:00:00 TS 30.9925 -43.4001 main 1928 1911 _____________P -1 30.9925 -43.4001 HU 80 4 23
1855270N33309 1855 14 NA NA NOT_NAMED 1855-10-15 18:00:00 TS 31.2000 -43.3000 main 1911 1901 _____________O -1 31.2000 -43.3000 HU 80 4 21
1855270N33309 1855 14 NA NA NOT_NAMED 1855-10-15 21:00:00 TS 31.3575 -43.2424 main 1895 1885 _____________P -1 31.3575 -43.2424 HU 80 3 16
1855270N33309 1855 14 NA NA NOT_NAMED 1855-10-16 00:00:00 TS 31.5000 -43.2000 main 1885 1874 _____________O -1 31.5000 -43.2000 HU 80 3 16
1855270N33309 1855 14 NA NA NOT_NAMED 1855-10-16 03:00:00 TS 31.6500 -43.1500 main 1868 1858 _____________P -1 31.6500 -43.1500 HU 80 3 16
1855270N33309 1855 14 NA NA NOT_NAMED 1855-10-16 06:00:00 TS 31.8000 -43.1000 main 1858 1848 _____________O -1 31.8000 -43.1000 HU 80 3 6
1855270N33309 1855 14 NA NA NOT_NAMED 1855-10-16 09:00:00 TS 31.9497 -43.1097 main 1848 1828 _____________P -1 31.9497 -43.1097 HU 80 3 16
1855270N33309 1855 14 NA NA NOT_NAMED 1855-10-16 12:00:00 TS 32.1000 -43.0000 main 1832 1826 _____________O -1 32.1000 -43.0000 HU 80 5 55
1855270N33309 1855 14 NA NA NOT_NAMED 1855-10-16 15:00:00 TS 32.2503 -42.6101 main 1828 1828 _____________P -1 32.2503 -42.6101 HU 80 8 68
1855270N33309 1855 14 NA NA NOT_NAMED 1855-10-16 18:00:00 TS 32.4000 -42.1000 main 1839 1838 _____________O -1 32.4000 -42.1000 HU 80 9 70
1855270N33309 1855 14 NA NA NOT_NAMED 1855-10-16 21:00:00 TS 32.5498 -41.6498 main 1851 1842 _____________P -1 32.5498 -41.6498 HU 77 8 68
1855270N33309 1855 14 NA NA NOT_NAMED 1855-10-17 00:00:00 TS 32.7000 -41.2000 main 1850 1850 _____________O -1 32.7000 -41.2000 HU 75 8 68
1855270N33309 1855 14 NA NA NOT_NAMED 1855-10-17 03:00:00 TS 32.8498 -40.7498 main 1864 1855 _____________P -1 32.8498 -40.7498 HU 75 8 68
1855270N33309 1855 14 NA NA NOT_NAMED 1855-10-17 06:00:00 TS 33.0000 -40.3000 main 1865 1865 _____________O -1 33.0000 -40.3000 HU 75 8 71
1855270N33309 1855 14 NA NA NOT_NAMED 1855-10-17 09:00:00 TS 33.1277 -39.8123 main 1880 1876 _____________P -1 33.1277 -39.8123 HU 72 8 68
1855270N33309 1855 14 NA NA NOT_NAMED 1855-10-17 12:00:00 TS 33.3000 -39.4000 main 1882 1865 _____________O -1 33.3000 -39.4000 HU 70 7 51
1855270N33309 1855 14 NA NA NOT_NAMED 1855-10-17 15:00:00 TS 33.5772 -39.1549 main 1865 1849 _____________P -1 33.5772 -39.1549 HU 70 7 29
1855270N33309 1855 14 NA NA NOT_NAMED 1855-10-17 18:00:00 TS 33.9000 -39.0000 main 1849 1827 _____________O -1 33.9000 -39.0000 HU 70 7 22
1855270N33309 1855 14 NA NA NOT_NAMED 1855-10-17 21:00:00 TS 34.1999 -38.8497 main 1832 1811 _____________P -1 34.1999 -38.8497 HU 65 7 22
1855270N33309 1855 14 NA NA NOT_NAMED 1855-10-18 00:00:00 TS 34.5000 -38.7000 main 1811 1796 _____________O -1 34.5000 -38.7000 TS 60 7 26
1855270N33309 1855 14 NA NA NOT_NAMED 1855-10-18 03:00:00 TS 34.8000 -38.5000 main 1796 1782 _____________P -1 34.8000 -38.5000 TS 60 7 29
1855270N33309 1855 14 NA NA NOT_NAMED 1855-10-18 06:00:00 TS 35.1000 -38.3000 main 1782 1771 _____________O -1 35.1000 -38.3000 TS 60 6 29
1855270N33309 1855 14 NA NA NOT_NAMED 1855-10-18 09:00:00 TS 35.3325 -38.1346 main 1776 1749 _____________P -1 35.3325 -38.1346 TS 55 6 22
1855270N33309 1855 14 NA NA NOT_NAMED 1855-10-18 12:00:00 TS 35.7000 -38.0000 main 1749 1705 _____________O -1 35.7000 -38.0000 TS 50 11 11
1855270N33309 1855 14 NA NA NOT_NAMED 1855-10-18 15:00:00 TS 36.3900 -37.8852 main 1697 1640 _____________P -1 36.3900 -37.8852 TS 45 15 6
1855270N33309 1855 14 NA NA NOT_NAMED 1855-10-18 18:00:00 TS 37.2000 -37.8000 main 1640 1591 _____________O -1 37.2000 -37.8000 TS 40 16 4
1855270N33309 1855 14 NA NA NOT_NAMED 1855-10-18 21:00:00 TS 37.9325 -37.7424 main 1591 1539 _____________P -1 37.9325 -37.7424 TS 37 14 3
1855270N33309 1855 14 NA NA NOT_NAMED 1855-10-19 00:00:00 TS 38.6000 -37.7000 main 1539 _____________O -1 38.6000 -37.7000 TS 35 13 4

IBTrACS Databaseについて

本データベースは、米国NOAAが公開する1842年以降の世界の熱帯低気圧のベストトラックデータアーカイブInternational Best Track Archive for Climate Stewardship (IBTrACS)を、ウェブで閲覧しやすい形式に変換したものです。

最終更新日:2021-10-21